createdAt,value
2017-01-25T00:00:41.799Z,1046.97
2017-01-25T00:01:41.788Z,1046.95
2017-01-25T00:02:41.774Z,1046.94
2017-01-25T00:03:41.759Z,1046.88
2017-01-25T00:04:41.747Z,1046.85
2017-01-25T00:05:41.735Z,1046.78
2017-01-25T00:06:41.720Z,1046.77
2017-01-25T00:07:41.707Z,1046.77
2017-01-25T00:08:41.693Z,1046.76
2017-01-25T00:09:41.681Z,1046.78
2017-01-25T00:10:41.668Z,1046.82
2017-01-25T00:11:41.657Z,1046.73
2017-01-25T00:12:41.641Z,1046.81
2017-01-25T00:13:41.628Z,1046.92
2017-01-25T00:14:41.614Z,1046.92
2017-01-25T00:15:41.601Z,1046.97
2017-01-25T00:16:41.589Z,1046.96
2017-01-25T00:17:41.576Z,1046.93
2017-01-25T00:18:41.561Z,1046.96
2017-01-25T00:19:41.549Z,1046.97
2017-01-25T00:20:41.537Z,1046.95
2017-01-25T00:21:41.523Z,1046.98
2017-01-25T00:22:41.508Z,1047
2017-01-25T00:23:41.496Z,1047
2017-01-25T00:24:41.483Z,1046.97
2017-01-25T00:25:41.470Z,1046.96
2017-01-25T00:26:41.456Z,1046.96
2017-01-25T00:27:41.445Z,1046.93
2017-01-25T00:28:41.430Z,1046.95
2017-01-25T00:29:41.416Z,1046.92
2017-01-25T00:30:41.402Z,1046.81
2017-01-25T00:31:41.390Z,1046.8
2017-01-25T00:32:41.377Z,1046.75
2017-01-25T00:33:41.364Z,1046.73
2017-01-25T00:34:41.351Z,1046.75
2017-01-25T00:35:41.340Z,1046.75
2017-01-25T00:36:41.324Z,1046.79
2017-01-25T00:37:41.312Z,1046.88
2017-01-25T00:38:41.299Z,1046.91
2017-01-25T00:39:41.286Z,1046.85
2017-01-25T00:40:41.272Z,1046.8
2017-01-25T00:41:41.259Z,1046.76
2017-01-25T00:42:41.246Z,1046.74
2017-01-25T00:43:41.232Z,1046.71
2017-01-25T00:44:41.220Z,1046.76
2017-01-25T00:45:41.206Z,1046.73
2017-01-25T00:46:41.194Z,1046.74
2017-01-25T00:47:41.180Z,1046.73
2017-01-25T00:48:41.167Z,1046.69
2017-01-25T00:49:41.153Z,1046.68
2017-01-25T00:50:41.140Z,1046.7
2017-01-25T00:51:41.127Z,1046.7
2017-01-25T00:52:41.115Z,1046.69
2017-01-25T00:53:41.101Z,1046.7
2017-01-25T00:54:41.087Z,1046.68
2017-01-25T00:55:41.075Z,1046.71
2017-01-25T00:56:41.061Z,1046.74
2017-01-25T00:57:41.048Z,1046.73
2017-01-25T00:58:41.035Z,1046.73
2017-01-25T00:59:41.022Z,1046.74
2017-01-25T01:00:41.009Z,1046.71
2017-01-25T01:01:40.996Z,1046.69
2017-01-25T01:02:40.982Z,1046.68
2017-01-25T01:03:40.969Z,1046.73
2017-01-25T01:04:40.959Z,1046.71
2017-01-25T01:05:40.942Z,1046.76
2017-01-25T01:06:40.931Z,1046.71
2017-01-25T01:07:40.919Z,1046.73
2017-01-25T01:08:40.912Z,1046.74
2017-01-25T01:09:40.891Z,1046.74
2017-01-25T01:10:40.879Z,1046.76
2017-01-25T01:11:40.865Z,1046.69
2017-01-25T01:12:40.852Z,1046.71
2017-01-25T01:13:40.838Z,1046.71
2017-01-25T01:14:40.825Z,1046.75
2017-01-25T01:15:40.812Z,1046.76
2017-01-25T01:16:40.798Z,1046.77
2017-01-25T01:17:40.785Z,1046.76
2017-01-25T01:18:40.773Z,1046.74
2017-01-25T01:19:40.759Z,1046.77
2017-01-25T01:20:40.746Z,1046.83
2017-01-25T01:21:40.733Z,1046.94
2017-01-25T01:22:40.721Z,1046.96
2017-01-25T01:23:40.706Z,1047.02
2017-01-25T01:24:40.692Z,1047.01
2017-01-25T01:25:40.688Z,1046.98
2017-01-25T01:26:40.668Z,1047.03
2017-01-25T01:27:40.654Z,1047.03
2017-01-25T01:28:40.641Z,1047.02
2017-01-25T01:29:40.628Z,1047.04
2017-01-25T01:30:40.615Z,1047
2017-01-25T01:31:40.600Z,1047
2017-01-25T01:32:40.588Z,1046.98
2017-01-25T01:33:40.575Z,1047.05
2017-01-25T01:34:40.562Z,1047.06
2017-01-25T01:35:40.549Z,1047.06
2017-01-25T01:36:40.535Z,1047.1
2017-01-25T01:37:40.522Z,1047.07
2017-01-25T01:38:40.509Z,1047.12
2017-01-25T01:39:40.496Z,1047.11
2017-01-25T01:40:40.483Z,1047.06
2017-01-25T01:41:40.470Z,1047.08
2017-01-25T01:42:40.456Z,1047.09
2017-01-25T01:43:40.443Z,1047.1
2017-01-25T01:44:40.431Z,1047.1
2017-01-25T01:45:40.418Z,1047.12
2017-01-25T01:46:40.405Z,1047.09
2017-01-25T01:47:40.391Z,1047.08
2017-01-25T01:48:40.377Z,1047.02
2017-01-25T01:49:40.364Z,1047.03
2017-01-25T01:50:40.351Z,1047.01
2017-01-25T01:51:40.337Z,1047.08
2017-01-25T01:52:40.325Z,1047.08
2017-01-25T01:53:40.311Z,1047.12
2017-01-25T01:54:40.300Z,1047.02
2017-01-25T01:55:40.285Z,1046.99
2017-01-25T01:56:40.272Z,1046.94
2017-01-25T01:57:40.259Z,1046.95
2017-01-25T01:58:40.545Z,1047
2017-01-25T01:59:40.232Z,1047.05
2017-01-25T02:00:40.217Z,1047.08
2017-01-25T02:01:40.205Z,1047.14
2017-01-25T02:02:40.192Z,1047.12
2017-01-25T02:03:40.180Z,1047.11
2017-01-25T02:04:40.168Z,1047.09
2017-01-25T02:05:40.155Z,1047.05
2017-01-25T02:06:40.140Z,1047.07
2017-01-25T02:07:40.137Z,1047.07
2017-01-25T02:08:40.118Z,1047.06
2017-01-25T02:09:40.101Z,1047.09
2017-01-25T02:10:40.087Z,1047.11
2017-01-25T02:11:40.075Z,1047.11
2017-01-25T02:12:40.060Z,1047.11
2017-01-25T02:13:40.048Z,1047.11
2017-01-25T02:14:40.036Z,1047.15
2017-01-25T02:15:40.021Z,1047.17
2017-01-25T02:16:40.008Z,1047.19
2017-01-25T02:17:39.996Z,1047.2
2017-01-25T02:18:39.982Z,1047.18
2017-01-25T02:19:39.968Z,1047.16
2017-01-25T02:20:39.956Z,1047.11
2017-01-25T02:21:39.942Z,1047.11
2017-01-25T02:22:39.930Z,1047.1
2017-01-25T02:23:39.915Z,1047.12
2017-01-25T02:24:39.902Z,1047.1
2017-01-25T02:25:39.889Z,1047.06
2017-01-25T02:26:39.875Z,1047.04
2017-01-25T02:27:39.862Z,1047.01
2017-01-25T02:28:39.850Z,1047.02
2017-01-25T02:29:39.835Z,1047.08
2017-01-25T02:30:39.824Z,1047.06
2017-01-25T02:31:39.810Z,1047.07
2017-01-25T02:32:39.796Z,1047.11
2017-01-25T02:33:39.783Z,1047.13
2017-01-25T02:34:39.769Z,1047.15
2017-01-25T02:35:39.757Z,1047.13
2017-01-25T02:36:39.744Z,1047.14
2017-01-25T02:37:39.730Z,1047.09
2017-01-25T02:38:39.716Z,1047.06
2017-01-25T02:39:39.704Z,1047.01
2017-01-25T02:40:39.690Z,1047.02
2017-01-25T02:41:39.676Z,1047
2017-01-25T02:42:39.663Z,1047.02
2017-01-25T02:43:39.650Z,1046.98
2017-01-25T02:44:39.637Z,1046.98
2017-01-25T02:45:39.624Z,1046.94
2017-01-25T02:46:39.612Z,1046.93
2017-01-25T02:47:39.598Z,1046.94
2017-01-25T02:48:39.584Z,1046.94
2017-01-25T02:49:39.570Z,1046.93
2017-01-25T02:50:39.558Z,1046.9
2017-01-25T02:51:39.544Z,1046.92
2017-01-25T02:52:39.532Z,1046.95
2017-01-25T02:53:39.518Z,1046.94
2017-01-25T02:54:39.505Z,1046.9
2017-01-25T02:55:39.491Z,1046.86
2017-01-25T02:56:39.478Z,1046.86
2017-01-25T02:57:39.465Z,1046.74
2017-01-25T02:58:39.452Z,1046.76
2017-01-25T02:59:39.439Z,1046.79
2017-01-25T03:00:39.425Z,1046.87
2017-01-25T03:01:39.412Z,1046.91
2017-01-25T03:02:39.398Z,1046.92
2017-01-25T03:03:39.386Z,1046.96
2017-01-25T03:04:39.372Z,1047
2017-01-25T03:05:39.360Z,1046.98
2017-01-25T03:06:39.345Z,1047
2017-01-25T03:07:39.331Z,1046.94
2017-01-25T03:08:39.319Z,1046.92
2017-01-25T03:09:39.306Z,1046.92
2017-01-25T03:10:39.293Z,1046.94
2017-01-25T03:11:39.282Z,1046.92
2017-01-25T03:12:39.266Z,1046.93
2017-01-25T03:13:39.252Z,1047.01
2017-01-25T03:14:39.239Z,1046.99
2017-01-25T03:15:39.226Z,1046.95
2017-01-25T03:16:39.213Z,1047.03
2017-01-25T03:17:39.200Z,1047.02
2017-01-25T03:18:39.189Z,1047.12
2017-01-25T03:19:39.173Z,1047.18
2017-01-25T03:20:39.160Z,1047.21
2017-01-25T03:21:39.147Z,1047.22
2017-01-25T03:22:39.133Z,1047.17
2017-01-25T03:23:39.121Z,1047.2
2017-01-25T03:24:39.107Z,1047.2
2017-01-25T03:25:39.093Z,1047.14
2017-01-25T03:26:39.080Z,1047.13
2017-01-25T03:27:39.068Z,1047.11
2017-01-25T03:28:39.054Z,1047.14
2017-01-25T03:29:39.042Z,1047.09
2017-01-25T03:30:39.027Z,1047.14
2017-01-25T03:31:39.015Z,1047.17
2017-01-25T03:32:39.001Z,1047.16
2017-01-25T03:33:38.987Z,1047.17
2017-01-25T03:34:38.975Z,1047.17
2017-01-25T03:35:38.960Z,1047.17
2017-01-25T03:36:38.947Z,1047.18
2017-01-25T03:37:38.934Z,1047.2
2017-01-25T03:38:38.921Z,1047.17
2017-01-25T03:39:38.907Z,1047.23
2017-01-25T03:40:38.894Z,1047.21
2017-01-25T03:41:38.881Z,1047.22
2017-01-25T03:42:38.868Z,1047.2
2017-01-25T03:43:38.859Z,1047.19
2017-01-25T03:44:38.842Z,1047.19
2017-01-25T03:45:38.829Z,1047.16
2017-01-25T03:46:38.815Z,1047.17
2017-01-25T03:47:38.802Z,1047.14
2017-01-25T03:48:38.791Z,1047.16
2017-01-25T03:49:38.776Z,1047.13
2017-01-25T03:50:38.763Z,1047.14
2017-01-25T03:51:38.750Z,1047.14
2017-01-25T03:52:38.737Z,1047.15
2017-01-25T03:53:38.723Z,1047.17
2017-01-25T03:54:38.709Z,1047.18
2017-01-25T03:55:38.697Z,1047.22
2017-01-25T03:56:38.683Z,1047.2
2017-01-25T03:57:38.669Z,1047.2
2017-01-25T03:58:38.657Z,1047.22
2017-01-25T03:59:38.643Z,1047.18
2017-01-25T04:00:38.631Z,1047.17
2017-01-25T04:01:38.616Z,1047.18
2017-01-25T04:02:38.603Z,1047.18
2017-01-25T04:03:38.593Z,1047.21
2017-01-25T04:04:38.577Z,1047.25
2017-01-25T04:05:38.565Z,1047.26
2017-01-25T04:06:38.551Z,1047.29
2017-01-25T04:07:38.538Z,1047.32
2017-01-25T04:08:38.524Z,1047.36
2017-01-25T04:09:38.512Z,1047.44
2017-01-25T04:10:38.499Z,1047.43
2017-01-25T04:11:38.486Z,1047.46
2017-01-25T04:12:38.471Z,1047.47
2017-01-25T04:13:38.459Z,1047.44
2017-01-25T04:14:38.446Z,1047.45
2017-01-25T04:15:38.431Z,1047.42
2017-01-25T04:16:38.419Z,1047.39
2017-01-25T04:17:38.406Z,1047.41
2017-01-25T04:18:38.394Z,1047.42
2017-01-25T04:19:38.380Z,1047.43
2017-01-25T04:20:38.366Z,1047.41
2017-01-25T04:21:38.353Z,1047.44
2017-01-25T04:22:38.340Z,1047.48
2017-01-25T04:23:38.326Z,1047.54
2017-01-25T04:24:38.313Z,1047.59
2017-01-25T04:25:38.300Z,1047.59
2017-01-25T04:26:38.286Z,1047.63
2017-01-25T04:27:38.274Z,1047.65
2017-01-25T04:28:38.259Z,1047.71
2017-01-25T04:29:38.247Z,1047.73
2017-01-25T04:30:38.233Z,1047.73
2017-01-25T04:31:38.220Z,1047.74
2017-01-25T04:32:38.206Z,1047.74
2017-01-25T04:33:38.195Z,1047.77
2017-01-25T04:34:38.180Z,1047.8
2017-01-25T04:35:38.166Z,1047.81
2017-01-25T04:36:38.152Z,1047.81
2017-01-25T04:37:38.139Z,1047.81
2017-01-25T04:38:38.127Z,1047.78
2017-01-25T04:39:38.112Z,1047.74
2017-01-25T04:40:38.100Z,1047.71
2017-01-25T04:41:38.086Z,1047.69
2017-01-25T04:42:38.073Z,1047.66
2017-01-25T04:43:38.069Z,1047.67
2017-01-25T04:44:38.047Z,1047.69
2017-01-25T04:45:38.035Z,1047.68
2017-01-25T04:46:38.019Z,1047.69
2017-01-25T04:47:38.007Z,1047.74
2017-01-25T04:48:37.992Z,1047.71
2017-01-25T04:49:37.979Z,1047.7
2017-01-25T04:50:37.996Z,1047.7
2017-01-25T04:51:37.953Z,1047.71
2017-01-25T04:52:37.939Z,1047.7
2017-01-25T04:53:37.925Z,1047.68
2017-01-25T04:54:37.912Z,1047.7
2017-01-25T04:55:37.899Z,1047.71
2017-01-25T04:56:37.885Z,1047.69
2017-01-25T04:57:37.872Z,1047.68
2017-01-25T04:58:37.859Z,1047.72
2017-01-25T04:59:37.845Z,1047.77
2017-01-25T05:00:37.832Z,1047.72
2017-01-25T05:01:37.821Z,1047.74
2017-01-25T05:02:37.806Z,1047.75
2017-01-25T05:03:37.792Z,1047.75
2017-01-25T05:04:37.777Z,1047.78
2017-01-25T05:05:37.765Z,1047.79
2017-01-25T05:06:37.752Z,1047.84
2017-01-25T05:07:37.737Z,1047.87
2017-01-25T05:08:37.727Z,1047.91
2017-01-25T05:09:37.712Z,1047.91
2017-01-25T05:10:37.697Z,1047.9
2017-01-25T05:11:37.684Z,1047.87
2017-01-25T05:12:37.671Z,1047.87
2017-01-25T05:13:37.659Z,1047.83
2017-01-25T05:14:37.643Z,1047.86
2017-01-25T05:15:37.631Z,1047.84
2017-01-25T05:16:37.617Z,1047.89
2017-01-25T05:17:37.608Z,1047.87
2017-01-25T05:18:37.591Z,1047.86
2017-01-25T05:19:37.577Z,1047.85
2017-01-25T05:20:37.564Z,1047.85
2017-01-25T05:21:37.551Z,1047.9
2017-01-25T05:22:37.537Z,1047.84
2017-01-25T05:23:37.529Z,1047.79
2017-01-25T05:24:37.516Z,1047.82
2017-01-25T05:25:37.497Z,1047.85
2017-01-25T05:26:37.484Z,1047.85
2017-01-25T05:27:37.470Z,1047.88
2017-01-25T05:28:37.456Z,1047.87
2017-01-25T05:29:37.443Z,1047.92
2017-01-25T05:30:37.429Z,1047.9
2017-01-25T05:31:37.416Z,1047.9
2017-01-25T05:32:37.404Z,1047.9
2017-01-25T05:33:37.388Z,1047.89
2017-01-25T05:34:37.375Z,1047.87
2017-01-25T05:35:37.362Z,1047.83
2017-01-25T05:36:37.355Z,1047.78
2017-01-25T05:37:37.334Z,1047.75
2017-01-25T05:38:37.350Z,1047.76
2017-01-25T05:39:37.307Z,1047.72
2017-01-25T05:40:37.294Z,1047.72
2017-01-25T05:41:37.280Z,1047.72
2017-01-25T05:42:37.267Z,1047.73
2017-01-25T05:43:37.254Z,1047.73
2017-01-25T05:44:37.239Z,1047.71
2017-01-25T05:45:37.227Z,1047.7
2017-01-25T05:46:37.214Z,1047.7
2017-01-25T05:47:37.199Z,1047.72
2017-01-25T05:48:37.189Z,1047.7
2017-01-25T05:49:37.173Z,1047.75
2017-01-25T05:50:37.159Z,1047.74
2017-01-25T05:51:37.147Z,1047.72
2017-01-25T05:52:37.133Z,1047.75
2017-01-25T05:53:37.119Z,1047.73
2017-01-25T05:54:37.105Z,1047.74
2017-01-25T05:55:37.092Z,1047.76
2017-01-25T05:56:37.079Z,1047.7
2017-01-25T05:57:37.067Z,1047.73
2017-01-25T05:58:37.052Z,1047.7
2017-01-25T05:59:37.039Z,1047.71
2017-01-25T06:00:37.025Z,1047.7
2017-01-25T06:01:37.011Z,1047.68
2017-01-25T06:02:36.998Z,1047.68
2017-01-25T06:03:36.986Z,1047.63
2017-01-25T06:04:37.000Z,1047.66
2017-01-25T06:05:36.958Z,1047.65
2017-01-25T06:06:36.946Z,1047.61
2017-01-25T06:07:36.932Z,1047.65
2017-01-25T06:08:36.920Z,1047.67
2017-01-25T06:09:36.905Z,1047.65
2017-01-25T06:10:36.893Z,1047.65
2017-01-25T06:11:36.880Z,1047.64
2017-01-25T06:12:36.866Z,1047.66
2017-01-25T06:13:36.852Z,1047.68
2017-01-25T06:14:36.839Z,1047.72
2017-01-25T06:15:36.826Z,1047.75
2017-01-25T06:16:36.813Z,1047.78
2017-01-25T06:17:36.798Z,1047.8
2017-01-25T06:18:36.786Z,1047.8
2017-01-25T06:19:36.773Z,1047.78
2017-01-25T06:20:36.759Z,1047.72
2017-01-25T06:21:36.747Z,1047.69
2017-01-25T06:22:36.733Z,1047.72
2017-01-25T06:23:36.719Z,1047.77
2017-01-25T06:24:36.708Z,1047.74
2017-01-25T06:25:36.694Z,1047.84
2017-01-25T06:26:36.680Z,1047.83
2017-01-25T06:27:36.666Z,1047.9
2017-01-25T06:28:36.653Z,1047.9
2017-01-25T06:29:36.642Z,1047.88
2017-01-25T06:30:36.648Z,1047.91
2017-01-25T06:31:36.615Z,1047.9
2017-01-25T06:32:36.627Z,1047.86
2017-01-25T06:33:36.587Z,1047.89
2017-01-25T06:34:36.595Z,1047.9
2017-01-25T06:35:36.561Z,1047.89
2017-01-25T06:36:36.547Z,1047.88
2017-01-25T06:37:36.535Z,1047.84
2017-01-25T06:38:36.520Z,1047.87
2017-01-25T06:39:36.507Z,1047.82
2017-01-25T06:40:36.494Z,1047.81
2017-01-25T06:41:36.482Z,1047.83
2017-01-25T06:42:36.492Z,1047.89
2017-01-25T06:43:36.455Z,1047.93
2017-01-25T06:44:36.445Z,1047.89
2017-01-25T06:45:36.430Z,1047.86
2017-01-25T06:46:36.414Z,1047.88
2017-01-25T06:47:36.403Z,1047.84
2017-01-25T06:48:36.388Z,1047.86
2017-01-25T06:49:36.376Z,1047.89
2017-01-25T06:50:36.362Z,1047.88
2017-01-25T06:51:36.349Z,1047.83
2017-01-25T06:52:36.336Z,1047.78
2017-01-25T06:53:36.323Z,1047.82
2017-01-25T06:54:36.309Z,1047.75
2017-01-25T06:55:36.297Z,1047.78
2017-01-25T06:56:36.284Z,1047.81
2017-01-25T06:57:36.270Z,1047.79
2017-01-25T06:58:36.257Z,1047.79
2017-01-25T06:59:36.244Z,1047.8
2017-01-25T07:00:36.230Z,1047.86
2017-01-25T07:01:36.217Z,1047.85
2017-01-25T07:02:36.204Z,1047.86
2017-01-25T07:03:36.190Z,1047.83
2017-01-25T07:04:36.178Z,1047.84
2017-01-25T07:05:36.164Z,1047.86
2017-01-25T07:06:36.151Z,1047.85
2017-01-25T07:07:36.138Z,1047.79
2017-01-25T07:08:36.125Z,1047.79
2017-01-25T07:09:36.112Z,1047.74
2017-01-25T07:10:36.099Z,1047.75
2017-01-25T07:11:36.084Z,1047.76
2017-01-25T07:12:36.077Z,1047.77
2017-01-25T07:13:36.059Z,1047.75
2017-01-25T07:14:36.045Z,1047.76
2017-01-25T07:15:36.032Z,1047.75
2017-01-25T07:16:36.019Z,1047.79
2017-01-25T07:17:36.007Z,1047.81
2017-01-25T07:18:35.993Z,1047.8
2017-01-25T07:19:35.979Z,1047.82
2017-01-25T07:20:35.967Z,1047.87
2017-01-25T07:21:35.954Z,1047.89
2017-01-25T07:22:35.940Z,1047.89
2017-01-25T07:23:35.926Z,1047.91
2017-01-25T07:24:35.917Z,1047.98
2017-01-25T07:25:35.906Z,1047.94
2017-01-25T07:26:35.888Z,1047.91
2017-01-25T07:27:35.876Z,1047.89
2017-01-25T07:28:35.862Z,1047.89
2017-01-25T07:29:35.849Z,1047.89
2017-01-25T07:30:35.835Z,1047.87
2017-01-25T07:31:35.823Z,1047.84
2017-01-25T07:32:35.810Z,1047.81
2017-01-25T07:33:35.796Z,1047.8
2017-01-25T07:34:35.784Z,1047.77
2017-01-25T07:35:35.771Z,1047.73
2017-01-25T07:36:35.757Z,1047.76
2017-01-25T07:37:35.744Z,1047.74
2017-01-25T07:38:35.731Z,1047.74
2017-01-25T07:39:35.720Z,1047.75
2017-01-25T07:40:35.705Z,1047.76
2017-01-25T07:41:35.693Z,1047.78
2017-01-25T07:42:35.679Z,1047.77
2017-01-25T07:43:35.666Z,1047.81
2017-01-25T07:44:35.654Z,1047.77
2017-01-25T07:45:35.641Z,1047.77
2017-01-25T07:46:35.627Z,1047.79
2017-01-25T07:47:35.616Z,1047.81
2017-01-25T07:48:35.627Z,1047.84
2017-01-25T07:49:35.589Z,1047.9
2017-01-25T07:50:35.576Z,1047.88
2017-01-25T07:51:35.562Z,1047.9
2017-01-25T07:52:35.549Z,1047.91
2017-01-25T07:53:35.537Z,1047.86
2017-01-25T07:54:35.526Z,1047.85
2017-01-25T07:55:35.511Z,1047.77
2017-01-25T07:56:35.498Z,1047.8
2017-01-25T07:57:35.485Z,1047.79
2017-01-25T07:58:35.472Z,1047.77
2017-01-25T07:59:35.459Z,1047.81
2017-01-25T08:00:35.447Z,1047.85
2017-01-25T08:01:35.435Z,1047.83
2017-01-25T08:02:35.421Z,1047.85
2017-01-25T08:03:35.408Z,1047.83
2017-01-25T08:04:35.395Z,1047.88
2017-01-25T08:05:35.383Z,1047.85
2017-01-25T08:06:35.370Z,1047.88
2017-01-25T08:07:35.356Z,1047.91
2017-01-25T08:08:35.343Z,1047.86
2017-01-25T08:09:35.332Z,1047.86
2017-01-25T08:10:35.317Z,1047.84
2017-01-25T08:11:35.304Z,1047.88
2017-01-25T08:12:35.293Z,1047.85
2017-01-25T08:13:35.278Z,1047.87
2017-01-25T08:14:35.265Z,1047.87
2017-01-25T08:15:35.253Z,1047.91
2017-01-25T08:16:35.240Z,1047.92
2017-01-25T08:17:35.230Z,1047.92
2017-01-25T08:18:35.213Z,1047.87
2017-01-25T08:19:35.203Z,1047.87
2017-01-25T08:20:35.189Z,1047.91
2017-01-25T08:21:35.175Z,1047.86
2017-01-25T08:22:35.162Z,1047.84
2017-01-25T08:23:35.150Z,1047.86
2017-01-25T08:24:35.137Z,1047.83
2017-01-25T08:25:35.123Z,1047.79
2017-01-25T08:26:35.111Z,1047.73
2017-01-25T08:27:35.098Z,1047.76
2017-01-25T08:28:35.085Z,1047.76
2017-01-25T08:29:35.099Z,1047.73
2017-01-25T08:30:35.087Z,1047.75
2017-01-25T08:31:35.046Z,1047.76
2017-01-25T08:32:35.033Z,1047.78
2017-01-25T08:33:35.022Z,1047.73
2017-01-25T08:34:35.009Z,1047.72
2017-01-25T08:35:34.996Z,1047.72
2017-01-25T08:36:34.983Z,1047.77
2017-01-25T08:37:34.972Z,1047.8
2017-01-25T08:38:34.957Z,1047.78
2017-01-25T08:39:34.944Z,1047.79
2017-01-25T08:40:34.931Z,1047.79
2017-01-25T08:41:34.918Z,1047.79
2017-01-25T08:42:34.937Z,1047.84
2017-01-25T08:43:34.892Z,1047.86
2017-01-25T08:44:34.880Z,1047.94
2017-01-25T08:45:34.868Z,1047.9
2017-01-25T08:46:34.855Z,1047.92
2017-01-25T08:47:34.842Z,1047.91
2017-01-25T08:48:34.830Z,1047.93
2017-01-25T08:49:34.816Z,1047.88
2017-01-25T08:50:34.804Z,1047.84
2017-01-25T08:51:34.791Z,1047.84
2017-01-25T08:52:34.779Z,1047.82
2017-01-25T08:53:34.766Z,1047.84
2017-01-25T08:54:34.753Z,1047.82
2017-01-25T08:55:34.741Z,1047.84
2017-01-25T08:56:34.728Z,1047.84
2017-01-25T08:57:34.715Z,1047.81
2017-01-25T08:58:34.702Z,1047.82
2017-01-25T08:59:34.691Z,1047.8
2017-01-25T09:00:34.677Z,1047.83
2017-01-25T09:01:34.667Z,1047.83
2017-01-25T09:02:34.652Z,1047.8
2017-01-25T09:03:34.639Z,1047.78
2017-01-25T09:04:34.627Z,1047.76
2017-01-25T09:05:34.614Z,1047.79
2017-01-25T09:06:34.602Z,1047.78
2017-01-25T09:07:34.597Z,1047.79
2017-01-25T09:08:34.580Z,1047.83
2017-01-25T09:09:34.564Z,1047.79
2017-01-25T09:10:34.552Z,1047.84
2017-01-25T09:11:34.538Z,1047.82
2017-01-25T09:12:34.526Z,1047.79
2017-01-25T09:13:34.514Z,1047.8
2017-01-25T09:14:34.501Z,1047.77
2017-01-25T09:15:34.488Z,1047.81
2017-01-25T09:16:34.476Z,1047.81
2017-01-25T09:17:34.467Z,1047.81
2017-01-25T09:18:34.451Z,1047.81
2017-01-25T09:19:34.690Z,1047.84
2017-01-25T09:20:34.428Z,1047.85
2017-01-25T09:21:34.415Z,1047.82
2017-01-25T09:22:34.402Z,1047.79
2017-01-25T09:23:34.389Z,1047.79
2017-01-25T09:24:34.377Z,1047.71
2017-01-25T09:25:34.365Z,1047.72
2017-01-25T09:26:34.352Z,1047.74
2017-01-25T09:27:34.343Z,1047.75
2017-01-25T09:28:34.328Z,1047.77
2017-01-25T09:29:34.316Z,1047.75
2017-01-25T09:30:34.305Z,1047.72
2017-01-25T09:31:34.291Z,1047.69
2017-01-25T09:32:34.279Z,1047.64
2017-01-25T09:33:34.265Z,1047.7
2017-01-25T09:34:34.254Z,1047.69
2017-01-25T09:35:34.241Z,1047.7
2017-01-25T09:36:34.229Z,1047.67
2017-01-25T09:37:34.217Z,1047.62
2017-01-25T09:38:34.204Z,1047.63
2017-01-25T09:39:34.192Z,1047.55
2017-01-25T09:40:34.182Z,1047.56
2017-01-25T09:41:34.167Z,1047.54
2017-01-25T09:42:34.156Z,1047.5
2017-01-25T09:43:34.172Z,1047.49
2017-01-25T09:44:34.131Z,1047.48
2017-01-25T09:45:34.119Z,1047.52
2017-01-25T09:46:34.107Z,1047.49
2017-01-25T09:47:34.095Z,1047.49
2017-01-25T09:48:34.083Z,1047.49
2017-01-25T09:49:34.072Z,1047.49
2017-01-25T09:50:34.059Z,1047.48
2017-01-25T09:51:34.048Z,1047.53
2017-01-25T09:52:34.035Z,1047.5
2017-01-25T09:53:34.048Z,1047.48
2017-01-25T09:54:34.012Z,1047.46
2017-01-25T09:55:33.998Z,1047.45
2017-01-25T09:56:33.987Z,1047.42
2017-01-25T09:57:33.975Z,1047.39
2017-01-25T09:58:33.964Z,1047.38
2017-01-25T09:59:33.951Z,1047.33
2017-01-25T10:00:33.939Z,1047.3
2017-01-25T10:01:33.928Z,1047.3
2017-01-25T10:02:33.916Z,1047.34
2017-01-25T10:03:33.906Z,1047.31
2017-01-25T10:04:33.896Z,1047.27
2017-01-25T10:05:33.881Z,1047.27
2017-01-25T10:06:33.868Z,1047.27
2017-01-25T10:07:33.857Z,1047.28
2017-01-25T10:08:33.845Z,1047.22
2017-01-25T10:09:33.834Z,1047.23
2017-01-25T10:10:33.821Z,1047.23
2017-01-25T10:11:33.809Z,1047.21
2017-01-25T10:12:33.798Z,1047.16
2017-01-25T10:13:33.788Z,1047.19
2017-01-25T10:14:33.774Z,1047.23
2017-01-25T10:15:33.767Z,1047.21
2017-01-25T10:16:33.751Z,1047.17
2017-01-25T10:17:33.739Z,1047.15
2017-01-25T10:18:33.727Z,1047.12
2017-01-25T10:19:33.716Z,1047.16
2017-01-25T10:20:33.704Z,1047.2
2017-01-25T10:21:33.692Z,1047.18
2017-01-25T10:22:33.680Z,1047.14
2017-01-25T10:23:33.669Z,1047.17
2017-01-25T10:24:33.657Z,1047.13
2017-01-25T10:25:33.648Z,1047.16
2017-01-25T10:26:33.633Z,1047.12
2017-01-25T10:27:33.622Z,1047.09
2017-01-25T10:28:33.611Z,1047.08
2017-01-25T10:29:33.623Z,1047.03
2017-01-25T10:30:33.587Z,1047
2017-01-25T10:31:33.575Z,1046.96
2017-01-25T10:32:33.562Z,1046.94
2017-01-25T10:33:33.552Z,1046.96
2017-01-25T10:34:33.544Z,1046.87
2017-01-25T10:35:33.527Z,1046.83
2017-01-25T10:36:33.517Z,1046.78
2017-01-25T10:37:33.506Z,1046.8
2017-01-25T10:38:33.495Z,1046.74
2017-01-25T10:39:33.481Z,1046.77
2017-01-25T10:40:33.470Z,1046.73
2017-01-25T10:41:33.459Z,1046.74
2017-01-25T10:42:33.448Z,1046.69
2017-01-25T10:43:33.436Z,1046.69
2017-01-25T10:44:33.425Z,1046.63
2017-01-25T10:45:33.413Z,1046.6
2017-01-25T10:46:33.405Z,1046.56
2017-01-25T10:47:33.389Z,1046.48
2017-01-25T10:48:33.379Z,1046.46
2017-01-25T10:49:33.369Z,1046.49
2017-01-25T10:50:33.355Z,1046.52
2017-01-25T10:51:33.345Z,1046.53
2017-01-25T10:52:33.334Z,1046.55
2017-01-25T10:53:33.323Z,1046.47
2017-01-25T10:54:33.311Z,1046.47
2017-01-25T10:55:33.300Z,1046.47
2017-01-25T10:56:33.293Z,1046.48
2017-01-25T10:57:33.276Z,1046.46
2017-01-25T10:58:33.266Z,1046.38
2017-01-25T10:59:33.255Z,1046.34
2017-01-25T11:00:33.244Z,1046.35
2017-01-25T11:01:33.233Z,1046.35
2017-01-25T11:02:33.221Z,1046.32
2017-01-25T11:03:33.211Z,1046.29
2017-01-25T11:04:33.199Z,1046.25
2017-01-25T11:05:33.188Z,1046.16
2017-01-25T11:06:33.177Z,1046.21
2017-01-25T11:07:33.167Z,1046.24
2017-01-25T11:08:33.156Z,1046.25
2017-01-25T11:09:33.144Z,1046.24
2017-01-25T11:10:33.133Z,1046.31
2017-01-25T11:11:33.124Z,1046.28
2017-01-25T11:12:33.110Z,1046.24
2017-01-25T11:13:33.100Z,1046.25
2017-01-25T11:14:33.090Z,1046.22
2017-01-25T11:15:33.078Z,1046.22
2017-01-25T11:16:33.067Z,1046.17
2017-01-25T11:17:33.056Z,1046.14
2017-01-25T11:18:33.045Z,1046.16
2017-01-25T11:19:33.034Z,1046.13
2017-01-25T11:20:33.023Z,1046.16
2017-01-25T11:21:33.011Z,1046.15
2017-01-25T11:22:33.001Z,1046.13
2017-01-25T11:23:32.989Z,1046.13
2017-01-25T11:24:32.979Z,1046.13
2017-01-25T11:25:32.968Z,1046.14
2017-01-25T11:26:32.958Z,1046.07
2017-01-25T11:27:32.946Z,1046.1
2017-01-25T11:28:32.936Z,1046.07
2017-01-25T11:29:32.925Z,1046.08
2017-01-25T11:30:32.913Z,1046.08
2017-01-25T11:31:32.902Z,1046.08
2017-01-25T11:32:32.892Z,1046.08
2017-01-25T11:33:32.881Z,1046.11
2017-01-25T11:34:32.869Z,1046.11
2017-01-25T11:35:32.859Z,1046.15
2017-01-25T11:36:32.848Z,1046.11
2017-01-25T11:37:32.837Z,1046.12
2017-01-25T11:38:32.827Z,1046.16
2017-01-25T11:39:32.817Z,1046.12
2017-01-25T11:40:32.805Z,1046.07
2017-01-25T11:41:32.794Z,1046.09
2017-01-25T11:42:32.785Z,1046.08
2017-01-25T11:43:32.772Z,1046.14
2017-01-25T11:44:32.761Z,1046.17
2017-01-25T11:45:32.750Z,1046.17
2017-01-25T11:46:32.741Z,1046.13
2017-01-25T11:47:32.728Z,1046.16
2017-01-25T11:48:32.718Z,1046.16
2017-01-25T11:49:32.706Z,1046.14
2017-01-25T11:50:32.696Z,1046.16
2017-01-25T11:51:32.685Z,1046.16
2017-01-25T11:52:32.674Z,1046.2
2017-01-25T11:53:32.665Z,1046.24
2017-01-25T11:54:32.652Z,1046.24
2017-01-25T11:55:32.642Z,1046.23
2017-01-25T11:56:32.629Z,1046.28
2017-01-25T11:57:32.619Z,1046.27
2017-01-25T11:58:32.608Z,1046.2
2017-01-25T11:59:32.597Z,1046.19
2017-01-25T12:00:32.585Z,1046.18
2017-01-25T12:01:32.578Z,1046.16
2017-01-25T12:02:32.591Z,1046.17
2017-01-25T12:03:32.553Z,1046.07
2017-01-25T12:04:32.542Z,1046.09
2017-01-25T12:05:32.530Z,1046.08
2017-01-25T12:06:32.520Z,1046.07
2017-01-25T12:07:32.508Z,1046.06
2017-01-25T12:08:32.497Z,1046.07